sensor_id;sensor_type;location;lat;lon;timestamp;P1;durP1;ratioP1;P2;durP2;ratioP2
33010;SDS011;19370;48.562;9.196;2024-03-02T11:20:55;12.38;;;3.92;;
33010;SDS011;19370;48.562;9.196;2024-03-02T11:23:31;9.48;;;3.85;;
33010;SDS011;19370;48.562;9.196;2024-03-02T11:26:16;8.23;;;3.90;;
33010;SDS011;19370;48.562;9.196;2024-03-02T11:28:43;7.47;;;3.80;;
33010;SDS011;19370;48.562;9.196;2024-03-02T11:31:10;7.97;;;3.50;;
33010;SDS011;19370;48.562;9.196;2024-03-02T11:33:36;7.82;;;3.72;;
33010;SDS011;19370;48.562;9.196;2024-03-02T11:36:02;6.75;;;3.35;;
33010;SDS011;19370;48.562;9.196;2024-03-02T11:38:29;6.72;;;2.78;;
33010;SDS011;19370;48.562;9.196;2024-03-02T11:40:56;7.40;;;2.90;;
33010;SDS011;19370;48.562;9.196;2024-03-02T11:43:25;6.47;;;2.50;;
33010;SDS011;19370;48.562;9.196;2024-03-02T11:46:03;6.75;;;2.72;;
33010;SDS011;19370;48.562;9.196;2024-03-02T11:48:31;6.60;;;2.78;;
33010;SDS011;19370;48.562;9.196;2024-03-02T11:50:58;6.50;;;2.78;;
33010;SDS011;19370;48.562;9.196;2024-03-02T11:53:24;6.63;;;2.78;;
33010;SDS011;19370;48.562;9.196;2024-03-02T11:55:53;7.28;;;3.00;;
33010;SDS011;19370;48.562;9.196;2024-03-02T11:58:20;7.43;;;2.90;;
33010;SDS011;19370;48.562;9.196;2024-03-02T12:00:52;6.40;;;2.80;;
33010;SDS011;19370;48.562;9.196;2024-03-02T12:03:18;6.70;;;2.83;;
33010;SDS011;19370;48.562;9.196;2024-03-02T12:05:48;6.68;;;2.80;;
33010;SDS011;19370;48.562;9.196;2024-03-02T12:08:14;7.60;;;3.33;;
33010;SDS011;19370;48.562;9.196;2024-03-02T12:10:40;6.50;;;3.00;;
33010;SDS011;19370;48.562;9.196;2024-03-02T12:13:06;6.60;;;2.58;;
33010;SDS011;19370;48.562;9.196;2024-03-02T12:15:36;6.22;;;2.35;;
33010;SDS011;19370;48.562;9.196;2024-03-02T12:18:02;5.72;;;1.90;;
33010;SDS011;19370;48.562;9.196;2024-03-02T12:20:29;6.35;;;2.13;;
33010;SDS011;19370;48.562;9.196;2024-03-02T13:49:03;5.90;;;1.73;;
33010;SDS011;19370;48.562;9.196;2024-03-02T13:51:29;7.23;;;1.60;;
33010;SDS011;19370;48.562;9.196;2024-03-02T13:53:54;11.13;;;1.60;;
33010;SDS011;19370;48.562;9.196;2024-03-02T13:56:20;5.53;;;1.37;;
33010;SDS011;19370;48.562;9.196;2024-03-02T13:58:47;7.03;;;1.27;;
33010;SDS011;19370;48.562;9.196;2024-03-02T14:01:12;6.28;;;1.58;;
33010;SDS011;19370;48.562;9.196;2024-03-02T14:03:39;4.88;;;1.27;;
33010;SDS011;19370;48.562;9.196;2024-03-02T14:06:05;4.90;;;1.40;;
33010;SDS011;19370;48.562;9.196;2024-03-02T14:08:31;5.15;;;1.50;;
33010;SDS011;19370;48.562;9.196;2024-03-02T14:10:58;4.97;;;1.30;;
33010;SDS011;19370;48.562;9.196;2024-03-02T14:13:25;4.97;;;1.30;;
33010;SDS011;19370;48.562;9.196;2024-03-02T14:15:51;5.88;;;1.23;;
33010;SDS011;19370;48.562;9.196;2024-03-02T14:18:20;5.83;;;1.40;;
33010;SDS011;19370;48.562;9.196;2024-03-02T14:20:46;5.07;;;1.40;;
33010;SDS011;19370;48.562;9.196;2024-03-02T14:23:17;6.22;;;1.50;;
33010;SDS011;19370;48.562;9.196;2024-03-02T14:25:45;4.65;;;1.27;;
33010;SDS011;19370;48.562;9.196;2024-03-02T14:28:10;5.23;;;1.30;;
33010;SDS011;19370;48.562;9.196;2024-03-02T14:30:37;4.43;;;1.10;;
33010;SDS011;19370;48.562;9.196;2024-03-02T14:33:02;5.00;;;1.45;;
